Time;durP1;ratioP1;P1;durP2;ratioP2;P2;SDS_P1;SDS_P2;PMS_P1;PMS_P2;Temp;Humidity;BMP_temperature;BMP_pressure;BME280_temperature;BME280_humidity;BME280_pressure;Samples;Min_cycle;Max_cycle;Signal;HPM_P1;HPM_P2
2022/08/02 00:00:07;;;;;;;11.15;3.53;;;9.80;92.70;;;;;;5035794;28;20060;-74
2022/08/02 00:02:32;;;;;;;9.13;3.35;;;9.80;92.60;;;;;;5030370;28;20033;-75
2022/08/02 00:04:58;;;;;;;6.93;3.10;;;9.70;92.50;;;;;;5034910;28;20366;-75
2022/08/02 00:07:23;;;;;;;8.13;3.22;;;9.70;92.60;;;;;;5035365;28;20029;-75
2022/08/02 00:09:49;;;;;;;7.35;3.58;;;9.70;92.70;;;;;;5035582;28;20036;-75
2022/08/02 00:12:15;;;;;;;7.60;3.40;;;9.60;92.70;;;;;;5033275;28;20091;-75
2022/08/02 00:14:40;;;;;;;9.73;3.40;;;9.70;92.80;;;;;;5032210;28;20030;-75
2022/08/02 00:17:06;;;;;;;8.90;3.55;;;9.60;92.90;;;;;;5022795;28;20028;-75
2022/08/02 00:19:31;;;;;;;12.43;3.58;;;9.60;92.90;;;;;;5030299;28;20032;-75
2022/08/02 00:21:57;;;;;;;11.98;4.07;;;9.60;93.10;;;;;;5033213;28;20025;-75
2022/08/02 00:24:22;;;;;;;12.05;4.32;;;9.60;93.30;;;;;;5031170;28;20044;-75
2022/08/02 00:26:48;;;;;;;13.02;4.28;;;9.60;93.50;;;;;;5032793;28;20536;-75
2022/08/02 00:29:13;;;;;;;11.57;4.38;;;9.60;93.60;;;;;;5026852;28;20072;-74
2022/08/02 00:31:39;;;;;;;9.02;4.03;;;9.50;93.40;;;;;;5032219;28;20045;-75
2022/08/02 00:34:04;;;;;;;11.35;4.57;;;9.50;93.20;;;;;;5033708;28;20108;-75
2022/08/02 00:36:30;;;;;;;6.38;4.03;;;9.50;93.30;;;;;;5033622;28;20117;-75
2022/08/02 00:38:55;;;;;;;14.18;4.72;;;9.50;93.30;;;;;;5033066;28;20519;-75
2022/08/02 00:41:21;;;;;;;12.05;4.82;;;9.50;93.60;;;;;;5032180;28;20037;-75
2022/08/02 00:43:49;;;;;;;10.90;4.30;;;9.60;94.00;;;;;;5034475;28;20556;-75
2022/08/02 00:46:17;;;;;;;11.20;4.63;;;9.50;94.10;;;;;;5033414;28;20029;-75
2022/08/02 00:48:42;;;;;;;10.63;4.18;;;9.50;94.20;;;;;;5031337;28;20029;-75
2022/08/02 00:51:08;;;;;;;7.95;4.07;;;9.50;94.40;;;;;;5034151;28;20083;-75
2022/08/02 00:53:34;;;;;;;10.77;4.35;;;9.40;94.20;;;;;;5032105;28;20128;-75
2022/08/02 00:56:00;;;;;;;8.13;3.92;;;9.40;94.20;;;;;;5035237;28;20037;-75
2022/08/02 00:58:26;;;;;;;14.35;4.30;;;9.30;94.10;;;;;;5023696;28;20112;-75
2022/08/02 01:00:51;;;;;;;12.60;3.80;;;9.30;94.20;;;;;;5035407;28;20057;-75
2022/08/02 01:03:17;;;;;;;10.07;4.43;;;9.30;94.50;;;;;;5032525;28;20163;-75
2022/08/02 01:05:43;;;;;;;11.18;4.22;;;9.30;94.60;;;;;;5030658;28;20021;-75
2022/08/02 01:08:09;;;;;;;7.35;4.20;;;9.30;94.70;;;;;;5030469;28;20033;-75
2022/08/02 01:10:35;;;;;;;10.63;4.25;;;9.30;94.50;;;;;;5030874;28;20029;-75
2022/08/02 01:13:00;;;;;;;9.02;4.03;;;9.20;94.30;;;;;;5031331;28;20512;-75
2022/08/02 01:15:27;;;;;;;9.68;4.07;;;9.20;94.00;;;;;;5033070;28;20136;-75
2022/08/02 01:18:02;;;;;;;9.73;4.45;;;9.20;93.90;;;;;;5016026;28;20042;-74
2022/08/02 01:20:47;;;;;;;11.48;4.72;;;9.20;94.00;;;;;;5029809;28;20508;-75
2022/08/02 01:23:22;;;;;;;7.65;3.78;;;9.10;94.10;;;;;;5029427;28;20025;-75
2022/08/02 01:26:16;;;;;;;20.58;4.68;;;9.10;94.00;;;;;;5025326;28;20053;-75
2022/08/02 01:28:49;;;;;;;11.93;4.50;;;9.10;94.10;;;;;;5025985;28;21095;-75
2022/08/02 01:31:24;;;;;;;10.63;4.47;;;9.00;93.90;;;;;;5031553;28;20029;-75
2022/08/02 01:34:02;;;;;;;13.10;4.72;;;9.00;93.90;;;;;;5029476;28;20065;-75
2022/08/02 01:36:35;;;;;;;9.18;3.85;;;9.00;94.10;;;;;;5030086;28;20144;-75
2022/08/02 01:39:04;;;;;;;13.48;4.50;;;9.00;93.90;;;;;;5023765;28;20562;-74
2022/08/02 01:41:31;;;;;;;10.35;4.70;;;8.90;93.90;;;;;;5028153;28;20036;-75
2022/08/02 01:43:59;;;;;;;7.25;4.32;;;8.90;93.90;;;;;;5031624;28;20018;-75
2022/08/02 01:46:27;;;;;;;10.10;4.95;;;9.00;94.10;;;;;;5029231;28;20040;-75
2022/08/02 01:48:55;;;;;;;14.55;4.55;;;8.90;94.40;;;;;;5024751;28;20064;-75
2022/08/02 01:54:10;;;;;;;11.63;4.70;;;8.90;94.40;;;;;;5026863;28;20045;-75
2022/08/02 01:56:37;;;;;;;14.05;4.78;;;8.80;94.50;;;;;;5027966;28;20033;-75
2022/08/02 01:59:04;;;;;;;10.73;4.32;;;8.80;94.30;;;;;;5013293;28;20037;-75
2022/08/02 02:01:32;;;;;;;13.00;5.18;;;8.80;94.30;;;;;;5026563;28;20065;-75
2022/08/02 02:03:59;;;;;;;12.27;4.63;;;8.80;94.30;;;;;;5030919;28;20025;-75
2022/08/02 02:06:25;;;;;;;11.10;5.13;;;8.70;94.30;;;;;;5024156;28;20536;-75
2022/08/02 02:08:52;;;;;;;13.68;5.47;;;8.70;94.50;;;;;;5028228;28;20021;-74
2022/08/02 02:11:17;;;;;;;14.30;5.45;;;8.70;94.60;;;;;;5030576;28;20088;-75
2022/08/02 02:13:46;;;;;;;9.80;4.88;;;8.70;94.60;;;;;;5028754;28;21449;-74
2022/08/02 02:16:13;;;;;;;17.48;5.90;;;8.70;94.70;;;;;;5026240;28;20071;-74
2022/08/02 02:18:42;;;;;;;16.25;6.00;;;8.60;94.60;;;;;;5027638;28;20120;-75
2022/08/02 02:21:08;;;;;;;14.35;6.35;;;8.60;94.60;;;;;;5030404;28;20029;-75
2022/08/02 02:23:34;;;;;;;17.35;6.60;;;8.60;94.50;;;;;;5029504;28;20185;-74
2022/08/02 02:26:01;;;;;;;10.77;5.63;;;8.60;94.50;;;;;;5026025;28;20377;-75
2022/08/02 02:28:29;;;;;;;17.02;6.05;;;8.50;94.60;;;;;;5022967;28;20772;-75
2022/08/02 02:31:07;;;;;;;12.15;6.45;;;8.50;94.60;;;;;;5030289;28;20515;-74
2022/08/02 02:33:36;;;;;;;12.05;6.15;;;8.50;94.70;;;;;;5026344;28;20033;-75
2022/08/02 02:36:02;;;;;;;12.15;6.25;;;8.50;94.80;;;;;;5029797;28;20040;-74
2022/08/02 02:38:30;;;;;;;14.63;6.93;;;8.50;94.80;;;;;;5027268;28;20064;-75
2022/08/02 02:41:00;;;;;;;13.93;6.00;;;8.50;95.20;;;;;;5026646;28;20120;-75
2022/08/02 02:43:29;;;;;;;23.05;7.63;;;8.70;95.50;;;;;;5028903;28;20036;-75
2022/08/02 02:45:55;;;;;;;21.58;6.88;;;8.70;95.60;;;;;;5025431;28;20022;-75
2022/08/02 02:48:21;;;;;;;12.63;7.30;;;8.70;95.80;;;;;;5027441;28;20373;-75
2022/08/02 02:50:47;;;;;;;18.00;8.40;;;8.70;96.00;;;;;;5024732;28;20033;-74
2022/08/02 02:53:16;;;;;;;22.13;8.48;;;8.60;95.80;;;;;;5030016;28;20361;-75
2022/08/02 02:55:43;;;;;;;15.75;7.55;;;8.60;95.90;;;;;;5029825;28;20099;-75
2022/08/02 02:58:09;;;;;;;23.10;8.38;;;8.50;95.80;;;;;;5026654;28;21152;-75
2022/08/02 03:03:19;;;;;;;17.65;8.02;;;8.60;95.70;;;;;;5027475;28;20535;-75
2022/08/02 03:05:45;;;;;;;19.05;8.93;;;8.60;95.80;;;;;;5028611;28;20044;-75
2022/08/02 03:08:11;;;;;;;18.98;7.85;;;8.50;95.70;;;;;;5028485;28;20465;-75
2022/08/02 03:10:37;;;;;;;19.90;8.88;;;8.50;95.60;;;;;;5025009;28;20029;-75
2022/08/02 03:13:03;;;;;;;15.82;7.75;;;8.60;95.60;;;;;;5028520;28;20036;-75
2022/08/02 03:15:30;;;;;;;16.23;7.78;;;8.60;95.70;;;;;;5017922;28;20026;-75
2022/08/02 03:17:55;;;;;;;15.88;8.07;;;8.50;95.60;;;;;;5024207;28;20025;-75
2022/08/02 03:20:24;;;;;;;20.98;7.50;;;8.50;95.40;;;;;;5027422;28;20087;-74
2022/08/02 03:22:49;;;;;;;15.30;8.23;;;8.60;95.50;;;;;;5028259;28;20030;-75
2022/08/02 03:25:16;;;;;;;17.70;7.93;;;8.60;95.50;;;;;;5028249;28;20025;-75
2022/08/02 03:27:42;;;;;;;18.00;7.18;;;8.70;95.60;;;;;;5026410;28;20034;-74
2022/08/02 03:30:10;;;;;;;15.00;6.80;;;8.70;95.40;;;;;;5027819;28;20167;-75
2022/08/02 03:32:37;;;;;;;16.23;7.65;;;8.70;95.40;;;;;;5017646;28;20160;-75
2022/08/02 03:35:05;;;;;;;16.02;7.57;;;8.80;95.50;;;;;;5028505;28;20048;-74
2022/08/02 03:37:34;;;;;;;16.10;7.63;;;8.90;95.70;;;;;;5027357;28;20405;-75
2022/08/02 03:40:00;;;;;;;17.92;7.97;;;8.90;95.70;;;;;;5024152;28;20175;-75
2022/08/02 03:42:27;;;;;;;15.45;7.90;;;9.00;95.70;;;;;;5021113;28;20030;-75
2022/08/02 03:44:54;;;;;;;17.25;8.00;;;9.00;95.60;;;;;;5027151;28;20465;-75
2022/08/02 03:47:21;;;;;;;15.27;7.28;;;9.00;95.70;;;;;;5024618;28;20021;-75
2022/08/02 03:49:46;;;;;;;15.00;7.75;;;9.00;95.70;;;;;;5026097;28;20497;-74
2022/08/02 03:52:13;;;;;;;15.77;7.55;;;9.10;95.70;;;;;;5026066;28;20041;-74
2022/08/02 03:54:38;;;;;;;16.38;7.85;;;9.10;95.60;;;;;;5028137;28;20034;-75
2022/08/02 03:57:06;;;;;;;15.98;7.10;;;9.10;95.60;;;;;;5026367;28;20042;-75
2022/08/02 03:59:43;;;;;;;14.60;7.00;;;9.10;95.70;;;;;;5020321;28;20117;-74
2022/08/02 04:02:09;;;;;;;15.85;7.30;;;9.00;95.70;;;;;;5020364;28;20029;-74
2022/08/02 04:04:35;;;;;;;11.40;6.63;;;9.00;95.70;;;;;;5028770;28;20029;-75
2022/08/02 04:07:00;;;;;;;12.50;6.82;;;9.00;95.80;;;;;;5023445;28;20034;-74
2022/08/02 04:09:26;;;;;;;18.13;6.95;;;9.00;95.70;;;;;;5026621;28;20030;-75
2022/08/02 04:11:51;;;;;;;11.13;6.43;;;8.90;95.70;;;;;;5028483;28;20420;-75
2022/08/02 04:14:17;;;;;;;16.27;7.13;;;8.90;95.90;;;;;;5028258;28;20127;-75
2022/08/02 04:16:51;;;;;;;13.30;7.32;;;8.90;95.90;;;;;;5025844;28;20406;-74
2022/08/02 04:19:46;;;;;;;22.08;7.43;;;8.90;96.00;;;;;;5025756;28;20373;-74
2022/08/02 04:22:30;;;;;;;14.52;6.68;;;9.00;96.10;;;;;;5027835;28;20373;-75
2022/08/02 04:25:00;;;;;;;11.77;7.45;;;8.90;96.00;;;;;;5026714;28;20116;-75
2022/08/02 04:27:26;;;;;;;12.77;6.93;;;8.80;95.90;;;;;;5022770;28;20038;-73
2022/08/02 04:29:52;;;;;;;13.40;7.47;;;8.70;95.90;;;;;;5023035;28;20473;-72
2022/08/02 04:32:18;;;;;;;14.48;7.95;;;8.80;95.90;;;;;;5025500;28;20041;-72
2022/08/02 04:34:44;;;;;;;12.93;7.70;;;8.80;95.90;;;;;;5028534;28;20546;-72
2022/08/02 04:37:12;;;;;;;20.27;8.27;;;8.80;95.90;;;;;;5026316;28;20045;-72
2022/08/02 04:39:40;;;;;;;14.55;8.40;;;8.80;96.00;;;;;;5025191;28;20048;-72
2022/08/02 04:42:06;;;;;;;18.80;8.35;;;8.80;96.00;;;;;;5030899;28;20025;-72
2022/08/02 04:44:32;;;;;;;18.02;7.68;;;8.80;95.90;;;;;;5029601;28;20080;-72
2022/08/02 04:47:01;;;;;;;16.00;7.40;;;8.80;95.90;;;;;;5028528;28;20030;-72
2022/08/02 04:49:27;;;;;;;15.95;7.30;;;8.80;95.80;;;;;;5031934;28;20045;-72
2022/08/02 04:51:53;;;;;;;16.40;7.68;;;8.80;95.70;;;;;;5031655;28;20138;-72
2022/08/02 04:54:19;;;;;;;19.25;8.70;;;8.80;95.70;;;;;;5030153;28;20473;-72
2022/08/02 04:56:45;;;;;;;15.98;7.90;;;8.90;95.80;;;;;;5030278;28;20039;-72
2022/08/02 04:59:11;;;;;;;16.80;8.63;;;9.00;95.90;;;;;;5027724;28;20033;-72
2022/08/02 05:01:38;;;;;;;20.58;9.68;;;9.10;96.00;;;;;;5028604;28;20087;-72
2022/08/02 05:04:03;;;;;;;21.15;9.75;;;9.20;96.10;;;;;;5030514;28;20432;-72
2022/08/02 05:06:29;;;;;;;21.30;10.55;;;9.30;96.20;;;;;;5029393;28;20029;-72
2022/08/02 05:08:54;;;;;;;19.40;10.07;;;9.50;96.30;;;;;;5027966;28;20033;-72
2022/08/02 05:11:21;;;;;;;24.38;10.38;;;9.60;96.40;;;;;;5030008;28;20061;-72
2022/08/02 05:13:47;;;;;;;29.35;10.93;;;9.70;96.50;;;;;;5031154;28;20033;-72
2022/08/02 05:16:12;;;;;;;22.05;10.75;;;9.80;96.50;;;;;;5028676;28;20543;-72
2022/08/02 05:18:38;;;;;;;23.38;10.55;;;10.00;96.50;;;;;;5029148;28;20038;-72
2022/08/02 05:21:03;;;;;;;16.73;10.27;;;10.10;96.50;;;;;;5030462;28;20013;-72
2022/08/02 05:23:29;;;;;;;23.98;10.68;;;10.30;96.80;;;;;;5025009;28;20571;-72
2022/08/02 05:25:55;;;;;;;23.77;9.70;;;10.50;96.80;;;;;;5028711;28;20036;-72
2022/08/02 05:28:20;;;;;;;24.40;10.27;;;10.60;96.80;;;;;;5020169;28;20072;-72
2022/08/02 05:30:46;;;;;;;20.20;10.05;;;10.70;96.60;;;;;;5032122;28;20504;-72
2022/08/02 05:33:11;;;;;;;24.35;9.77;;;10.80;96.70;;;;;;5027043;28;20366;-72
2022/08/02 05:35:37;;;;;;;23.52;9.15;;;11.00;96.70;;;;;;5030702;28;20045;-72
2022/08/02 05:38:02;;;;;;;16.10;7.72;;;10.90;96.50;;;;;;5029328;28;20037;-72
2022/08/02 05:40:32;;;;;;;19.48;7.57;;;11.00;96.50;;;;;;5028122;28;20041;-72
2022/08/02 05:42:57;;;;;;;14.35;7.07;;;11.10;96.20;;;;;;5027465;28;20500;-72
2022/08/02 05:45:23;;;;;;;24.23;7.07;;;11.20;96.20;;;;;;5030479;28;20060;-72
2022/08/02 05:47:49;;;;;;;20.92;7.00;;;11.30;96.20;;;;;;5026900;28;20057;-72
2022/08/02 05:50:14;;;;;;;19.02;6.70;;;11.60;96.00;;;;;;5030728;28;20037;-72
2022/08/02 05:52:43;;;;;;;16.25;5.57;;;11.70;95.50;;;;;;5029659;28;20029;-72
2022/08/02 05:55:20;;;;;;;16.25;5.78;;;11.80;95.40;;;;;;5031396;28;20029;-72
2022/08/02 05:58:13;;;;;;;15.48;5.70;;;11.90;95.20;;;;;;5030613;28;20108;-72
2022/08/02 06:00:40;;;;;;;15.85;5.20;;;12.00;95.10;;;;;;5031319;28;20029;-72
2022/08/02 06:03:17;;;;;;;17.20;4.38;;;12.30;94.70;;;;;;5025581;28;20070;-72
2022/08/02 06:05:57;;;;;;;17.90;4.50;;;12.30;94.30;;;;;;5030988;28;20022;-72
2022/08/02 06:08:25;;;;;;;13.73;3.83;;;12.40;93.60;;;;;;5029084;28;20022;-72
2022/08/02 06:10:55;;;;;;;11.05;4.28;;;12.60;93.10;;;;;;5028013;28;20021;-72
2022/08/02 06:13:21;;;;;;;8.50;3.53;;;12.80;92.40;;;;;;5030832;28;20539;-72
2022/08/02 06:15:51;;;;;;;19.08;3.38;;;13.00;91.90;;;;;;5031822;28;20021;-72
2022/08/02 06:18:17;;;;;;;15.18;3.10;;;13.20;91.30;;;;;;5022615;28;20034;-72
2022/08/02 06:20:48;;;;;;;14.73;2.75;;;13.30;90.10;;;;;;5030309;28;20044;-72
2022/08/02 06:23:14;;;;;;;7.10;2.55;;;13.50;89.90;;;;;;5030989;28;20022;-72
2022/08/02 06:25:41;;;;;;;7.75;1.90;;;13.60;90.10;;;;;;5028629;28;20453;-72
2022/08/02 06:28:07;;;;;;;12.45;2.70;;;13.70;88.50;;;;;;5025465;28;20055;-72
2022/08/02 06:30:32;;;;;;;10.43;2.28;;;13.80;88.80;;;;;;5031602;28;20067;-72
2022/08/02 06:32:59;;;;;;;11.60;2.33;;;13.90;88.00;;;;;;5028295;28;20140;-72
2022/08/02 06:35:41;;;;;;;8.15;2.60;;;14.00;88.50;;;;;;5031119;28;20029;-72
2022/08/02 06:38:09;;;;;;;13.40;2.17;;;14.00;87.60;;;;;;5029265;28;20468;-72
2022/08/02 06:40:51;;;;;;;11.80;2.17;;;14.00;86.30;;;;;;5029319;28;20037;-72
2022/08/02 06:43:37;;;;;;;11.98;1.83;;;14.10;86.00;;;;;;5027735;28;20021;-72
2022/08/02 06:46:02;;;;;;;6.88;2.33;;;14.40;87.00;;;;;;5016285;28;20053;-72
2022/08/02 06:48:29;;;;;;;6.85;1.70;;;14.50;86.70;;;;;;5014672;28;20053;-71
2022/08/02 06:50:55;;;;;;;5.82;1.75;;;14.60;86.80;;;;;;5027056;28;20052;-71
2022/08/02 06:53:20;;;;;;;5.25;1.35;;;14.60;85.00;;;;;;5029897;28;20139;-71
2022/08/02 06:55:46;;;;;;;5.18;1.55;;;14.60;84.10;;;;;;5027665;28;20040;-71
2022/08/02 06:58:13;;;;;;;9.63;1.90;;;14.60;84.20;;;;;;5028507;28;20023;-71
2022/08/02 07:00:39;;;;;;;10.07;2.10;;;14.80;85.00;;;;;;5029686;28;20032;-71
2022/08/02 07:03:05;;;;;;;9.15;2.05;;;14.90;84.40;;;;;;5025530;28;20044;-71
2022/08/02 07:05:30;;;;;;;5.72;1.88;;;14.90;82.10;;;;;;5016242;28;20033;-71
2022/08/02 07:07:56;;;;;;;8.55;1.88;;;15.00;82.80;;;;;;5029761;28;20040;-71
2022/08/02 07:10:21;;;;;;;8.30;1.80;;;15.20;82.40;;;;;;5027013;28;20033;-71
2022/08/02 07:12:47;;;;;;;8.43;1.73;;;15.30;81.90;;;;;;5028009;28;20060;-71
2022/08/02 07:15:12;;;;;;;10.02;1.52;;;15.50;82.70;;;;;;5025846;28;20068;-71
2022/08/02 07:17:38;;;;;;;4.50;1.80;;;15.60;81.10;;;;;;5026664;28;20432;-71
2022/08/02 07:20:04;;;;;;;10.57;1.95;;;15.80;81.30;;;;;;5026224;28;20566;-71
2022/08/02 07:22:30;;;;;;;9.20;1.92;;;16.00;80.90;;;;;;5027068;28;20046;-71
2022/08/02 07:24:57;;;;;;;6.38;1.70;;;16.00;80.20;;;;;;5026864;28;20033;-71
2022/08/02 07:27:23;;;;;;;8.27;1.73;;;16.10;79.20;;;;;;5029461;28;20636;-71
2022/08/02 07:29:49;;;;;;;7.53;1.85;;;16.20;79.60;;;;;;5015588;28;20112;-71
2022/08/02 07:32:19;;;;;;;10.52;1.70;;;16.40;79.10;;;;;;5026420;28;20104;-71
2022/08/02 07:34:45;;;;;;;7.30;2.20;;;16.50;78.90;;;;;;5027503;28;20124;-71
2022/08/02 07:37:11;;;;;;;11.77;2.42;;;16.50;78.50;;;;;;5029704;28;20076;-71
2022/08/02 07:39:37;;;;;;;4.85;1.70;;;16.60;77.60;;;;;;5027012;28;20064;-71
2022/08/02 07:42:03;;;;;;;6.45;1.95;;;16.80;78.50;;;;;;5027896;28;20034;-69
2022/08/02 07:44:33;;;;;;;6.72;1.65;;;17.10;79.10;;;;;;5015604;28;20333;-69
2022/08/02 07:47:00;;;;;;;8.38;1.88;;;17.20;76.20;;;;;;5005084;28;20570;-69
2022/08/02 07:49:26;;;;;;;6.63;1.80;;;17.40;75.40;;;;;;5028136;28;20461;-69
2022/08/02 07:51:51;;;;;;;7.47;1.90;;;17.50;75.20;;;;;;5027168;28;20040;-69
2022/08/02 07:54:17;;;;;;;11.50;1.80;;;17.80;76.20;;;;;;5020996;28;20500;-69
2022/08/02 07:56:42;;;;;;;7.10;1.83;;;18.00;76.10;;;;;;5028566;28;20042;-69
2022/08/02 07:59:09;;;;;;;13.55;2.33;;;18.10;76.10;;;;;;5026937;28;20037;-69
2022/08/02 08:01:35;;;;;;;4.65;1.88;;;18.10;74.40;;;;;;5027803;28;20033;-69
2022/08/02 08:04:00;;;;;;;6.97;2.15;;;18.20;73.70;;;;;;5026977;28;20084;-70
2022/08/02 08:06:26;;;;;;;9.85;1.77;;;18.30;73.90;;;;;;5028913;28;20030;-69
2022/08/02 08:08:51;;;;;;;5.82;1.70;;;18.40;72.40;;;;;;5025890;28;20065;-69
2022/08/02 08:11:17;;;;;;;7.13;1.55;;;18.70;72.70;;;;;;5028451;28;20041;-69
2022/08/02 08:13:42;;;;;;;8.40;2.20;;;18.70;70.40;;;;;;5030112;28;20099;-69
2022/08/02 08:16:08;;;;;;;7.75;1.95;;;18.80;71.80;;;;;;5032596;28;20060;-69
2022/08/02 08:18:33;;;;;;;10.20;2.40;;;19.00;70.70;;;;;;5022248;28;20416;-69
2022/08/02 08:20:59;;;;;;;8.90;2.03;;;19.30;70.70;;;;;;5031362;28;20026;-69
2022/08/02 08:23:25;;;;;;;7.07;1.70;;;19.50;70.10;;;;;;5032261;28;20033;-70
2022/08/02 08:25:50;;;;;;;7.25;1.80;;;19.40;68.20;;;;;;5031215;28;20183;-69
2022/08/02 08:28:16;;;;;;;7.65;1.52;;;19.40;68.70;;;;;;5032020;28;20021;-69
2022/08/02 08:30:41;;;;;;;11.05;1.67;;;19.70;69.50;;;;;;5031961;28;20179;-69
2022/08/02 08:33:07;;;;;;;6.75;1.83;;;19.70;66.70;;;;;;5029715;28;20022;-69
2022/08/02 08:35:33;;;;;;;7.63;1.75;;;19.80;68.70;;;;;;5031874;28;20065;-69
2022/08/02 08:37:59;;;;;;;9.60;1.30;;;20.00;69.50;;;;;;5031960;28;20150;-70
2022/08/02 08:40:25;;;;;;;4.70;1.55;;;19.80;65.70;;;;;;5031059;28;20120;-70
2022/08/02 08:42:50;;;;;;;6.47;1.73;;;20.00;67.80;;;;;;5031616;28;20405;-69
2022/08/02 08:45:16;;;;;;;7.78;1.60;;;19.90;67.40;;;;;;5017875;28;20075;-69
2022/08/02 08:47:42;;;;;;;9.05;1.95;;;20.00;67.80;;;;;;5029765;28;20033;-69
2022/08/02 08:50:18;;;;;;;7.43;1.70;;;20.10;65.80;;;;;;5031919;28;20025;-69
2022/08/02 08:53:00;;;;;;;7.65;1.55;;;20.00;66.30;;;;;;5030794;28;20045;-69
2022/08/02 08:55:27;;;;;;;4.60;1.55;;;20.30;66.20;;;;;;5020435;28;20497;-69
2022/08/02 08:57:54;;;;;;;5.80;1.67;;;20.40;67.00;;;;;;5030646;28;20030;-69
2022/08/02 09:00:20;;;;;;;4.93;1.70;;;20.50;65.40;;;;;;5030111;28;20025;-69
2022/08/02 09:02:46;;;;;;;7.88;1.67;;;20.50;65.20;;;;;;5030311;28;20103;-70
2022/08/02 09:05:14;;;;;;;5.15;1.75;;;20.90;66.90;;;;;;5023927;28;20033;-70
2022/08/02 09:07:41;;;;;;;6.97;1.98;;;21.10;66.60;;;;;;5031441;28;20508;-69
2022/08/02 09:10:36;;;;;;;6.45;1.67;;;21.30;64.20;;;;;;5029774;28;20048;-69
2022/08/02 09:13:14;;;;;;;7.45;1.83;;;21.30;64.00;;;;;;5031087;28;20116;-70
2022/08/02 09:15:42;;;;;;;10.27;1.80;;;21.30;64.10;;;;;;5022592;28;20080;-69
2022/08/02 09:18:09;;;;;;;7.72;2.00;;;21.30;64.10;;;;;;5018752;28;20129;-69
2022/08/02 09:20:56;;;;;;;6.63;1.80;;;21.50;64.00;;;;;;5027329;28;20065;-70
2022/08/02 09:23:22;;;;;;;4.10;1.40;;;21.80;62.20;;;;;;5028676;28;20384;-70
2022/08/02 09:26:00;;;;;;;5.05;1.70;;;21.60;62.90;;;;;;5029318;28;20037;-70
2022/08/02 09:28:32;;;;;;;5.53;1.55;;;21.70;63.40;;;;;;5030418;28;20380;-70
2022/08/02 09:31:28;;;;;;;3.63;1.48;;;21.90;62.20;;;;;;5025225;28;20034;-70
2022/08/02 09:33:57;;;;;;;7.18;1.40;;;21.80;60.90;;;;;;5019563;28;20041;-71
2022/08/02 09:36:23;;;;;;;10.80;1.58;;;21.90;61.00;;;;;;5031974;28;20044;-71
2022/08/02 09:38:57;;;;;;;5.18;1.67;;;22.30;61.80;;;;;;5030835;28;20519;-71
2022/08/02 09:41:25;;;;;;;7.38;1.52;;;22.40;60.60;;;;;;5031020;28;20110;-71
2022/08/02 09:43:52;;;;;;;7.38;1.48;;;22.10;59.10;;;;;;5023271;28;20057;-71
2022/08/02 09:46:22;;;;;;;7.45;1.48;;;22.30;58.00;;;;;;5023280;28;20056;-71
2022/08/02 09:48:48;;;;;;;;;;;22.30;59.00;;;;;;5027585;28;20018;-71
2022/08/02 09:51:29;;;;;;;5.28;1.33;;;22.30;58.20;;;;;;5025075;28;19996;-71
2022/08/02 09:53:57;;;;;;;4.30;1.42;;;22.70;57.60;;;;;;5029316;28;20121;-71
2022/08/02 09:56:24;;;;;;;5.40;1.27;;;22.60;59.30;;;;;;5032155;28;20041;-71
2022/08/02 09:58:53;;;;;;;5.05;1.48;;;22.70;57.40;;;;;;5024243;28;20192;-71
2022/08/02 10:01:31;;;;;;;4.80;1.45;;;23.00;55.40;;;;;;5024388;28;20570;-71
2022/08/02 10:03:59;;;;;;;4.55;1.30;;;22.90;55.70;;;;;;5023794;28;20053;-71
2022/08/02 10:06:26;;;;;;;5.05;1.25;;;22.90;55.90;;;;;;5020381;28;20036;-71
2022/08/02 10:08:52;;;;;;;3.72;1.23;;;23.20;55.10;;;;;;5023956;28;20045;-71
2022/08/02 10:11:20;;;;;;;2.85;1.20;;;23.20;56.60;;;;;;5029576;28;20029;-71
2022/08/02 10:13:46;;;;;;;3.90;1.25;;;23.60;53.90;;;;;;5027138;28;20013;-71
2022/08/02 10:16:14;;;;;;;5.07;1.27;;;23.50;54.20;;;;;;5019722;28;20160;-71
2022/08/02 10:18:40;;;;;;;6.00;1.40;;;23.50;50.40;;;;;;5023278;28;20030;-71
2022/08/02 10:21:11;;;;;;;5.57;1.40;;;23.90;52.10;;;;;;5026911;28;20080;-71
2022/08/02 10:23:39;;;;;;;4.53;1.40;;;23.80;51.10;;;;;;5019979;28;20132;-71
2022/08/02 10:26:06;;;;;;;5.18;1.40;;;23.80;53.50;;;;;;5031285;28;20022;-71
2022/08/02 10:28:32;;;;;;;5.03;1.10;;;24.00;52.70;;;;;;5029030;28;20029;-71
2022/08/02 10:31:04;;;;;;;4.40;1.30;;;24.00;51.10;;;;;;5031710;28;20121;-71
2022/08/02 10:33:33;;;;;;;5.18;1.08;;;23.90;50.20;;;;;;5029555;28;20127;-71
2022/08/02 10:36:00;;;;;;;5.95;1.10;;;24.00;48.90;;;;;;5030474;28;20032;-71
2022/08/02 10:38:26;;;;;;;7.75;1.05;;;24.20;51.30;;;;;;5028545;28;20049;-71
2022/08/02 10:40:54;;;;;;;5.07;1.50;;;24.00;50.60;;;;;;5027296;28;20041;-71
2022/08/02 10:43:34;;;;;;;4.32;1.33;;;24.20;48.70;;;;;;5031250;28;20021;-71
2022/08/02 10:46:18;;;;;;;;;;;24.40;49.60;;;;;;5030895;28;20025;-71
2022/08/02 10:49:02;;;;;;;3.15;1.10;;;24.40;50.40;;;;;;5028523;28;19913;-71
2022/08/02 10:52:00;;;;;;;3.78;1.27;;;24.10;50.20;;;;;;5029061;28;20527;-71
2022/08/02 10:54:38;;;;;;;6.15;1.35;;;24.40;51.10;;;;;;5013571;28;20033;-72
2022/08/02 10:57:15;;;;;;;6.43;1.20;;;25.00;51.50;;;;;;5027613;28;20026;-72
2022/08/02 10:59:40;;;;;;;4.55;0.90;;;25.10;48.00;;;;;;5030795;28;20487;-72
2022/08/02 11:02:06;;;;;;;5.63;1.13;;;25.30;48.20;;;;;;5029368;28;20021;-72
2022/08/02 11:04:52;;;;;;;3.50;0.82;;;25.50;48.80;;;;;;5030137;28;20017;-71
2022/08/02 11:07:20;;;;;;;4.80;1.27;;;25.40;47.20;;;;;;5029016;28;20029;-72
2022/08/02 11:09:49;;;;;;;7.70;1.27;;;25.70;47.30;;;;;;5029446;28;20021;-72
2022/08/02 11:12:20;;;;;;;3.03;1.20;;;26.40;46.70;;;;;;5028122;28;20060;-72
2022/08/02 11:15:02;;;;;;;2.55;1.00;;;26.90;46.70;;;;;;5030744;28;20060;-71
2022/08/02 11:17:52;;;;;;;2.83;0.85;;;26.50;45.30;;;;;;5026752;28;20033;-72
2022/08/02 11:20:19;;;;;;;2.65;0.98;;;26.30;47.40;;;;;;5029721;28;20037;-71
2022/08/02 11:22:47;;;;;;;3.40;0.80;;;26.70;47.40;;;;;;5031071;28;20025;-71
2022/08/02 11:25:22;;;;;;;3.65;0.73;;;27.10;45.60;;;;;;5027484;28;20424;-72
2022/08/02 11:27:51;;;;;;;2.25;0.73;;;26.20;43.10;;;;;;5021181;28;20519;-71
2022/08/02 11:30:17;;;;;;;4.28;1.30;;;26.40;42.60;;;;;;5014582;28;20037;-70
2022/08/02 11:32:42;;;;;;;4.00;0.90;;;26.60;44.10;;;;;;5022526;28;20556;-71
2022/08/02 11:35:08;;;;;;;1.80;0.80;;;26.60;43.20;;;;;;5019931;28;20453;-71
2022/08/02 11:37:40;;;;;;;2.90;0.70;;;26.70;43.40;;;;;;5022267;28;20351;-71
2022/08/02 11:40:16;;;;;;;1.85;1.02;;;26.60;41.70;;;;;;5021886;28;20040;-71
2022/08/02 11:42:44;;;;;;;4.57;1.10;;;26.90;44.40;;;;;;5019044;28;20528;-71
2022/08/02 11:45:13;;;;;;;4.45;1.00;;;27.20;44.10;;;;;;5019852;28;20104;-71
2022/08/02 11:47:50;;;;;;;6.47;1.40;;;27.50;42.20;;;;;;5015843;28;20373;-71
2022/08/02 11:50:16;;;;;;;4.32;0.80;;;27.20;41.50;;;;;;5025295;28;20335;-71
2022/08/02 11:52:43;;;;;;;3.83;1.15;;;27.40;42.20;;;;;;5018240;28;20081;-71
2022/08/02 11:55:10;;;;;;;3.40;0.93;;;28.00;43.20;;;;;;5018173;28;20040;-72
2022/08/02 11:57:36;;;;;;;4.35;1.13;;;28.50;41.50;;;;;;5014887;28;20030;-72
2022/08/02 12:00:13;;;;;;;2.00;0.90;;;28.60;41.50;;;;;;5019919;28;20033;-72
2022/08/02 12:02:46;;;;;;;4.70;1.02;;;28.40;40.70;;;;;;5019780;28;20045;-71
2022/08/02 12:05:16;;;;;;;2.80;0.90;;;28.70;41.40;;;;;;5017399;28;20068;-72
2022/08/02 12:07:44;;;;;;;4.28;1.25;;;28.60;40.90;;;;;;5020518;28;20129;-72
2022/08/02 12:10:16;;;;;;;3.33;0.77;;;28.40;39.50;;;;;;5016914;28;20050;-71
2022/08/02 12:12:53;;;;;;;4.50;1.17;;;28.30;39.40;;;;;;5021157;28;20034;-71
2022/08/02 12:15:29;;;;;;;2.22;0.90;;;28.00;41.10;;;;;;5018062;28;20045;-71
2022/08/02 12:20:38;;;;;;;2.47;0.90;;;28.00;41.00;;;;;;5018992;28;20064;-71
2022/08/02 12:23:04;;;;;;;3.38;0.93;;;27.40;39.90;;;;;;5018964;28;20030;-71
2022/08/02 12:25:30;;;;;;;3.38;0.80;;;27.70;40.90;;;;;;5020531;28;20025;-72
2022/08/02 12:28:13;;;;;;;3.25;0.80;;;28.30;40.40;;;;;;5019903;28;20067;-71
2022/08/02 12:30:59;;;;;;;2.08;0.70;;;28.10;38.90;;;;;;5020439;28;20029;-72
2022/08/02 12:33:28;;;;;;;3.45;0.93;;;28.60;41.10;;;;;;5025853;28;20052;-71
2022/08/02 12:35:54;;;;;;;5.88;1.02;;;28.40;39.90;;;;;;5027544;28;20029;-71
2022/08/02 12:38:20;;;;;;;3.80;1.00;;;28.50;38.00;;;;;;5026741;28;20129;-71
2022/08/02 12:40:46;;;;;;;5.82;1.00;;;28.80;40.20;;;;;;5023689;28;20167;-72
2022/08/02 12:43:17;;;;;;;2.72;0.77;;;29.10;38.90;;;;;;5025859;28;20044;-72
2022/08/02 12:45:52;;;;;;;2.40;0.85;;;29.50;40.60;;;;;;5023200;28;20511;-71
2022/08/02 12:48:39;;;;;;;5.88;0.80;;;30.20;37.90;;;;;;5025850;28;20049;-71
2022/08/02 12:51:20;;;;;;;4.40;0.98;;;30.30;36.40;;;;;;5017750;28;20484;-72
2022/08/02 12:53:46;;;;;;;1.35;0.82;;;29.60;37.50;;;;;;5017781;28;20662;-71
2022/08/02 12:56:11;;;;;;;2.13;0.60;;;29.80;37.10;;;;;;5023948;28;20025;-71
2022/08/02 12:58:50;;;;;;;3.63;0.80;;;29.50;35.10;;;;;;5020088;28;20048;-71
2022/08/02 13:01:23;;;;;;;3.53;1.00;;;29.50;37.10;;;;;;5029045;28;20029;-72